sensor_id;sensor_type;location;lat;lon;timestamp;temperature;humidity
23520;DHT22;11936;50.820;4.336;2022-10-04T00:00:22;14.40;99.90
23520;DHT22;11936;50.820;4.336;2022-10-04T00:02:50;14.30;99.90
23520;DHT22;11936;50.820;4.336;2022-10-04T00:05:21;14.20;99.90
23520;DHT22;11936;50.820;4.336;2022-10-04T00:07:53;14.20;99.90
23520;DHT22;11936;50.820;4.336;2022-10-04T00:10:29;14.20;99.90
23520;DHT22;11936;50.820;4.336;2022-10-04T00:12:59;14.20;99.90
23520;DHT22;11936;50.820;4.336;2022-10-04T00:15:28;14.20;99.90
23520;DHT22;11936;50.820;4.336;2022-10-04T00:25:53;14.10;99.90
23520;DHT22;11936;50.820;4.336;2022-10-04T00:33:48;14.10;99.90
23520;DHT22;11936;50.820;4.336;2022-10-04T00:44:32;14.10;99.90
23520;DHT22;11936;50.820;4.336;2022-10-04T00:46:59;14.10;99.90
23520;DHT22;11936;50.820;4.336;2022-10-04T00:49:32;14.00;99.90
23520;DHT22;11936;50.820;4.336;2022-10-04T00:52:17;14.10;99.90
23520;DHT22;11936;50.820;4.336;2022-10-04T00:54:49;14.10;99.90
23520;DHT22;11936;50.820;4.336;2022-10-04T00:57:20;14.10;99.90
23520;DHT22;11936;50.820;4.336;2022-10-04T01:00:05;14.10;99.90
23520;DHT22;11936;50.820;4.336;2022-10-04T01:02:45;14.00;99.90
23520;DHT22;11936;50.820;4.336;2022-10-04T01:05:25;14.10;99.90
23520;DHT22;11936;50.820;4.336;2022-10-04T01:10:54;14.00;99.90
23520;DHT22;11936;50.820;4.336;2022-10-04T01:13:42;14.00;99.90
23520;DHT22;11936;50.820;4.336;2022-10-04T01:16:27;13.90;99.90
23520;DHT22;11936;50.820;4.336;2022-10-04T01:18:53;13.90;99.90
23520;DHT22;11936;50.820;4.336;2022-10-04T01:23:46;13.80;99.90
23520;DHT22;11936;50.820;4.336;2022-10-04T01:31:59;13.80;99.90
23520;DHT22;11936;50.820;4.336;2022-10-04T01:34:25;13.90;99.90
23520;DHT22;11936;50.820;4.336;2022-10-04T01:37:02;13.90;99.90
23520;DHT22;11936;50.820;4.336;2022-10-04T01:39:28;13.90;99.90
23520;DHT22;11936;50.820;4.336;2022-10-04T01:45:25;13.80;99.90
23520;DHT22;11936;50.820;4.336;2022-10-04T01:48:00;13.80;99.90
23520;DHT22;11936;50.820;4.336;2022-10-04T01:55:43;13.80;99.90
23520;DHT22;11936;50.820;4.336;2022-10-04T01:58:25;13.80;99.90
23520;DHT22;11936;50.820;4.336;2022-10-04T02:01:04;13.90;99.90
23520;DHT22;11936;50.820;4.336;2022-10-04T02:03:34;13.90;99.90
23520;DHT22;11936;50.820;4.336;2022-10-04T02:06:03;13.80;99.90
23520;DHT22;11936;50.820;4.336;2022-10-04T02:08:32;13.80;99.90
23520;DHT22;11936;50.820;4.336;2022-10-04T02:10:59;13.70;99.90
23520;DHT22;11936;50.820;4.336;2022-10-04T02:13:28;13.70;99.90
23520;DHT22;11936;50.820;4.336;2022-10-04T02:15:58;13.60;99.90
23520;DHT22;11936;50.820;4.336;2022-10-04T02:18:24;13.60;99.90
23520;DHT22;11936;50.820;4.336;2022-10-04T02:20:52;13.60;99.90
23520;DHT22;11936;50.820;4.336;2022-10-04T02:23:20;13.60;99.90
23520;DHT22;11936;50.820;4.336;2022-10-04T02:25:47;13.50;99.90
23520;DHT22;11936;50.820;4.336;2022-10-04T02:28:14;13.40;99.90
23520;DHT22;11936;50.820;4.336;2022-10-04T02:30:51;13.50;99.90
23520;DHT22;11936;50.820;4.336;2022-10-04T02:33:43;13.40;99.90
23520;DHT22;11936;50.820;4.336;2022-10-04T02:36:10;13.50;99.90
23520;DHT22;11936;50.820;4.336;2022-10-04T02:39:02;13.40;99.90
23520;DHT22;11936;50.820;4.336;2022-10-04T02:41:31;13.50;99.90
23520;DHT22;11936;50.820;4.336;2022-10-04T02:46:53;13.50;99.90
23520;DHT22;11936;50.820;4.336;2022-10-04T02:49:27;13.40;99.90
23520;DHT22;11936;50.820;4.336;2022-10-04T02:52:07;13.40;99.90
23520;DHT22;11936;50.820;4.336;2022-10-04T02:57:32;13.30;99.90
23520;DHT22;11936;50.820;4.336;2022-10-04T03:00:20;13.30;99.90
23520;DHT22;11936;50.820;4.336;2022-10-04T03:05:30;13.40;99.90
23520;DHT22;11936;50.820;4.336;2022-10-04T03:07:57;13.30;99.90
23520;DHT22;11936;50.820;4.336;2022-10-04T03:10:23;13.40;99.90
23520;DHT22;11936;50.820;4.336;2022-10-04T03:12:50;13.30;99.90
23520;DHT22;11936;50.820;4.336;2022-10-04T03:15:16;13.30;99.90
23520;DHT22;11936;50.820;4.336;2022-10-04T03:17:43;13.30;99.90
23520;DHT22;11936;50.820;4.336;2022-10-04T03:20:10;13.20;99.90
23520;DHT22;11936;50.820;4.336;2022-10-04T03:22:39;13.30;99.90
23520;DHT22;11936;50.820;4.336;2022-10-04T03:25:08;13.30;99.90
23520;DHT22;11936;50.820;4.336;2022-10-04T03:27:37;13.30;99.90
23520;DHT22;11936;50.820;4.336;2022-10-04T03:30:04;13.30;99.90
23520;DHT22;11936;50.820;4.336;2022-10-04T03:32:30;13.30;99.90
23520;DHT22;11936;50.820;4.336;2022-10-04T03:35:02;13.40;99.90
23520;DHT22;11936;50.820;4.336;2022-10-04T03:37:30;13.30;99.90
23520;DHT22;11936;50.820;4.336;2022-10-04T03:40:00;13.40;99.90
23520;DHT22;11936;50.820;4.336;2022-10-04T03:42:32;13.20;99.90
23520;DHT22;11936;50.820;4.336;2022-10-04T03:45:05;13.10;99.90
23520;DHT22;11936;50.820;4.336;2022-10-04T03:47:35;13.10;99.90
23520;DHT22;11936;50.820;4.336;2022-10-04T03:50:05;13.20;99.90
23520;DHT22;11936;50.820;4.336;2022-10-04T03:52:38;13.10;99.90
23520;DHT22;11936;50.820;4.336;2022-10-04T03:55:06;13.00;99.90
23520;DHT22;11936;50.820;4.336;2022-10-04T03:57:34;13.00;99.90
23520;DHT22;11936;50.820;4.336;2022-10-04T04:00:04;13.10;99.90
23520;DHT22;11936;50.820;4.336;2022-10-04T04:02:57;13.00;99.90
23520;DHT22;11936;50.820;4.336;2022-10-04T04:05:30;13.00;99.90
23520;DHT22;11936;50.820;4.336;2022-10-04T04:08:16;13.10;99.90
23520;DHT22;11936;50.820;4.336;2022-10-04T04:10:51;13.20;99.90
23520;DHT22;11936;50.820;4.336;2022-10-04T04:15:49;13.20;99.90
23520;DHT22;11936;50.820;4.336;2022-10-04T04:18:19;13.20;99.90
23520;DHT22;11936;50.820;4.336;2022-10-04T04:20:48;13.20;99.90
23520;DHT22;11936;50.820;4.336;2022-10-04T04:23:36;13.20;99.90
23520;DHT22;11936;50.820;4.336;2022-10-04T04:29:07;13.10;99.90
23520;DHT22;11936;50.820;4.336;2022-10-04T04:36:46;13.00;99.90
23520;DHT22;11936;50.820;4.336;2022-10-04T04:39:31;13.00;99.90
23520;DHT22;11936;50.820;4.336;2022-10-04T04:42:24;12.90;99.90
23520;DHT22;11936;50.820;4.336;2022-10-04T04:44:53;12.90;99.90
23520;DHT22;11936;50.820;4.336;2022-10-04T04:49:57;12.90;99.90
23520;DHT22;11936;50.820;4.336;2022-10-04T04:52:28;13.00;99.90
23520;DHT22;11936;50.820;4.336;2022-10-04T04:54:54;12.90;99.90
23520;DHT22;11936;50.820;4.336;2022-10-04T04:57:20;12.90;99.90
23520;DHT22;11936;50.820;4.336;2022-10-04T04:59:50;12.90;99.90
23520;DHT22;11936;50.820;4.336;2022-10-04T05:02:34;12.90;99.90
23520;DHT22;11936;50.820;4.336;2022-10-04T05:05:22;12.80;99.90
23520;DHT22;11936;50.820;4.336;2022-10-04T05:07:48;12.90;99.90
23520;DHT22;11936;50.820;4.336;2022-10-04T05:10:28;12.80;99.90
23520;DHT22;11936;50.820;4.336;2022-10-04T05:12:56;12.70;99.90
23520;DHT22;11936;50.820;4.336;2022-10-04T05:15:24;12.60;99.90
23520;DHT22;11936;50.820;4.336;2022-10-04T05:17:50;12.60;99.90
23520;DHT22;11936;50.820;4.336;2022-10-04T05:20:17;12.60;99.90
23520;DHT22;11936;50.820;4.336;2022-10-04T05:22:46;12.60;99.90
23520;DHT22;11936;50.820;4.336;2022-10-04T05:25:22;12.60;99.90
23520;DHT22;11936;50.820;4.336;2022-10-04T05:27:49;12.70;99.90
23520;DHT22;11936;50.820;4.336;2022-10-04T05:30:41;12.70;99.90
23520;DHT22;11936;50.820;4.336;2022-10-04T05:33:15;12.70;99.90
23520;DHT22;11936;50.820;4.336;2022-10-04T05:35:59;12.70;99.90
23520;DHT22;11936;50.820;4.336;2022-10-04T05:38:49;12.70;99.90
23520;DHT22;11936;50.820;4.336;2022-10-04T05:41:27;12.70;99.90
23520;DHT22;11936;50.820;4.336;2022-10-04T05:43:56;12.60;99.90
23520;DHT22;11936;50.820;4.336;2022-10-04T05:46:29;12.60;99.90
23520;DHT22;11936;50.820;4.336;2022-10-04T05:49:11;12.60;99.90
23520;DHT22;11936;50.820;4.336;2022-10-04T05:51:59;12.70;99.90
23520;DHT22;11936;50.820;4.336;2022-10-04T05:54:28;12.60;99.90
23520;DHT22;11936;50.820;4.336;2022-10-04T05:57:19;12.50;99.90
23520;DHT22;11936;50.820;4.336;2022-10-04T06:00:09;12.40;99.90
23520;DHT22;11936;50.820;4.336;2022-10-04T06:03:00;12.60;99.90
23520;DHT22;11936;50.820;4.336;2022-10-04T06:22:18;12.70;99.90
23520;DHT22;11936;50.820;4.336;2022-10-04T06:24:50;12.70;99.90
23520;DHT22;11936;50.820;4.336;2022-10-04T06:27:37;12.80;99.90
23520;DHT22;11936;50.820;4.336;2022-10-04T06:30:14;12.80;99.90
23520;DHT22;11936;50.820;4.336;2022-10-04T06:33:16;12.90;99.90
23520;DHT22;11936;50.820;4.336;2022-10-04T06:35:54;12.90;99.90
23520;DHT22;11936;50.820;4.336;2022-10-04T06:41:29;12.80;99.90
23520;DHT22;11936;50.820;4.336;2022-10-04T07:00:15;13.00;99.90
23520;DHT22;11936;50.820;4.336;2022-10-04T07:05:20;12.90;99.90
23520;DHT22;11936;50.820;4.336;2022-10-04T07:24:31;13.10;99.90
23520;DHT22;11936;50.820;4.336;2022-10-04T07:27:00;13.10;99.90
23520;DHT22;11936;50.820;4.336;2022-10-04T07:29:32;13.20;99.90
23520;DHT22;11936;50.820;4.336;2022-10-04T07:34:29;13.10;99.90
23520;DHT22;11936;50.820;4.336;2022-10-04T07:36:58;13.20;99.90
23520;DHT22;11936;50.820;4.336;2022-10-04T07:45:26;13.30;99.90
23520;DHT22;11936;50.820;4.336;2022-10-04T07:48:18;13.10;99.90
23520;DHT22;11936;50.820;4.336;2022-10-04T07:51:10;13.20;99.90
23520;DHT22;11936;50.820;4.336;2022-10-04T07:54:11;13.20;99.90
23520;DHT22;11936;50.820;4.336;2022-10-04T07:56:52;13.30;99.90
23520;DHT22;11936;50.820;4.336;2022-10-04T08:10:55;13.60;99.90
23520;DHT22;11936;50.820;4.336;2022-10-04T08:16:35;13.60;99.90
23520;DHT22;11936;50.820;4.336;2022-10-04T08:19:12;13.60;99.90
23520;DHT22;11936;50.820;4.336;2022-10-04T08:22:06;13.60;99.90
23520;DHT22;11936;50.820;4.336;2022-10-04T08:24:50;13.50;99.90
23520;DHT22;11936;50.820;4.336;2022-10-04T08:27:36;13.60;99.90
23520;DHT22;11936;50.820;4.336;2022-10-04T08:30:15;13.50;99.90
23520;DHT22;11936;50.820;4.336;2022-10-04T08:33:11;13.70;99.90
23520;DHT22;11936;50.820;4.336;2022-10-04T08:35:38;13.70;99.90
23520;DHT22;11936;50.820;4.336;2022-10-04T08:56:03;13.80;99.90
23520;DHT22;11936;50.820;4.336;2022-10-04T09:01:57;13.80;99.90
23520;DHT22;11936;50.820;4.336;2022-10-04T09:19:10;14.00;99.90
23520;DHT22;11936;50.820;4.336;2022-10-04T09:27:18;14.10;99.90
23520;DHT22;11936;50.820;4.336;2022-10-04T09:30:10;14.20;99.90
23520;DHT22;11936;50.820;4.336;2022-10-04T09:33:11;14.20;99.90
23520;DHT22;11936;50.820;4.336;2022-10-04T09:36:09;14.30;99.90
23520;DHT22;11936;50.820;4.336;2022-10-04T09:39:07;14.40;99.90
23520;DHT22;11936;50.820;4.336;2022-10-04T09:44:50;14.50;99.90
23520;DHT22;11936;50.820;4.336;2022-10-04T09:56:47;14.80;99.90
23520;DHT22;11936;50.820;4.336;2022-10-04T09:59:22;14.90;99.90
23520;DHT22;11936;50.820;4.336;2022-10-04T10:02:19;15.00;99.90
23520;DHT22;11936;50.820;4.336;2022-10-04T10:08:23;15.20;99.90
23520;DHT22;11936;50.820;4.336;2022-10-04T10:11:01;15.20;99.90
23520;DHT22;11936;50.820;4.336;2022-10-04T10:14:13;15.20;99.90
23520;DHT22;11936;50.820;4.336;2022-10-04T10:16:52;15.20;99.90
23520;DHT22;11936;50.820;4.336;2022-10-04T10:28:05;15.20;99.90
23520;DHT22;11936;50.820;4.336;2022-10-04T10:30:48;15.30;99.90
23520;DHT22;11936;50.820;4.336;2022-10-04T10:41:17;15.40;99.90
23520;DHT22;11936;50.820;4.336;2022-10-04T10:43:57;15.40;99.90
23520;DHT22;11936;50.820;4.336;2022-10-04T10:49:25;15.50;99.90
23520;DHT22;11936;50.820;4.336;2022-10-04T10:58:07;15.80;99.90
23520;DHT22;11936;50.820;4.336;2022-10-04T11:04:18;15.90;99.90
23520;DHT22;11936;50.820;4.336;2022-10-04T11:12:19;16.10;99.90
23520;DHT22;11936;50.820;4.336;2022-10-04T11:28:50;16.40;99.90
23520;DHT22;11936;50.820;4.336;2022-10-04T11:35:30;16.40;99.90
23520;DHT22;11936;50.820;4.336;2022-10-04T11:40:21;16.50;99.90
23520;DHT22;11936;50.820;4.336;2022-10-04T11:43:34;16.60;99.90
23520;DHT22;11936;50.820;4.336;2022-10-04T11:48:58;16.80;99.90
23520;DHT22;11936;50.820;4.336;2022-10-04T12:07:23;16.90;99.90
23520;DHT22;11936;50.820;4.336;2022-10-04T12:09:39;16.90;99.90
23520;DHT22;11936;50.820;4.336;2022-10-04T12:18:10;17.00;99.90
23520;DHT22;11936;50.820;4.336;2022-10-04T12:31:35;17.20;99.90
23520;DHT22;11936;50.820;4.336;2022-10-04T12:42:28;17.30;99.90
23520;DHT22;11936;50.820;4.336;2022-10-04T12:45:41;17.20;99.90
23520;DHT22;11936;50.820;4.336;2022-10-04T12:48:32;17.20;99.90
23520;DHT22;11936;50.820;4.336;2022-10-04T12:51:29;17.30;99.90
23520;DHT22;11936;50.820;4.336;2022-10-04T13:00:15;17.50;99.90
23520;DHT22;11936;50.820;4.336;2022-10-04T13:05:15;17.40;99.90
23520;DHT22;11936;50.820;4.336;2022-10-04T13:15:43;17.80;99.90
23520;DHT22;11936;50.820;4.336;2022-10-04T13:21:13;17.90;99.90
23520;DHT22;11936;50.820;4.336;2022-10-04T13:23:53;17.90;99.90
23520;DHT22;11936;50.820;4.336;2022-10-04T13:39:45;18.00;99.90
23520;DHT22;11936;50.820;4.336;2022-10-04T13:45:42;18.20;99.90
23520;DHT22;11936;50.820;4.336;2022-10-04T13:53:24;18.10;99.90
23520;DHT22;11936;50.820;4.336;2022-10-04T13:59:20;18.20;99.90
23520;DHT22;11936;50.820;4.336;2022-10-04T14:30:33;18.20;99.90
23520;DHT22;11936;50.820;4.336;2022-10-04T14:44:22;18.30;99.90
23520;DHT22;11936;50.820;4.336;2022-10-04T14:46:53;18.40;99.90
23520;DHT22;11936;50.820;4.336;2022-10-04T14:54:58;18.10;99.90
23520;DHT22;11936;50.820;4.336;2022-10-04T14:58:51;18.10;99.90
23520;DHT22;11936;50.820;4.336;2022-10-04T15:06:47;18.40;99.90
23520;DHT22;11936;50.820;4.336;2022-10-04T15:12:00;18.40;99.90
23520;DHT22;11936;50.820;4.336;2022-10-04T15:17:06;18.40;99.90
23520;DHT22;11936;50.820;4.336;2022-10-04T15:22:31;18.30;99.90
23520;DHT22;11936;50.820;4.336;2022-10-04T15:25:01;18.30;99.90
23520;DHT22;11936;50.820;4.336;2022-10-04T15:27:51;18.20;99.90
23520;DHT22;11936;50.820;4.336;2022-10-04T15:30:33;18.10;99.90
23520;DHT22;11936;50.820;4.336;2022-10-04T15:33:28;18.10;99.90
23520;DHT22;11936;50.820;4.336;2022-10-04T15:38:48;18.10;99.90
23520;DHT22;11936;50.820;4.336;2022-10-04T15:41:33;18.10;99.90
23520;DHT22;11936;50.820;4.336;2022-10-04T15:49:58;17.90;99.90
23520;DHT22;11936;50.820;4.336;2022-10-04T16:00:13;17.90;99.90
23520;DHT22;11936;50.820;4.336;2022-10-04T16:11:12;17.80;99.90
23520;DHT22;11936;50.820;4.336;2022-10-04T16:29:39;17.60;99.90
23520;DHT22;11936;50.820;4.336;2022-10-04T16:32:28;17.60;99.90
23520;DHT22;11936;50.820;4.336;2022-10-04T16:37:55;17.50;99.90
23520;DHT22;11936;50.820;4.336;2022-10-04T16:43:27;17.40;99.90
23520;DHT22;11936;50.820;4.336;2022-10-04T16:46:10;17.40;99.90
23520;DHT22;11936;50.820;4.336;2022-10-04T16:51:23;17.30;99.90
23520;DHT22;11936;50.820;4.336;2022-10-04T16:54:00;17.40;99.90
23520;DHT22;11936;50.820;4.336;2022-10-04T16:56:31;17.30;99.90
23520;DHT22;11936;50.820;4.336;2022-10-04T17:19:04;17.00;99.90
23520;DHT22;11936;50.820;4.336;2022-10-04T17:21:52;16.90;99.90
23520;DHT22;11936;50.820;4.336;2022-10-04T17:25:00;16.80;99.90
23520;DHT22;11936;50.820;4.336;2022-10-04T17:27:45;16.80;99.90
23520;DHT22;11936;50.820;4.336;2022-10-04T17:30:18;16.70;99.90
23520;DHT22;11936;50.820;4.336;2022-10-04T17:38:06;16.60;99.90
23520;DHT22;11936;50.820;4.336;2022-10-04T17:51:42;16.70;99.90
23520;DHT22;11936;50.820;4.336;2022-10-04T17:54:53;16.60;99.90
23520;DHT22;11936;50.820;4.336;2022-10-04T17:57:44;16.60;99.90
23520;DHT22;11936;50.820;4.336;2022-10-04T18:00:16;16.60;99.90
23520;DHT22;11936;50.820;4.336;2022-10-04T18:03:09;16.50;99.90
23520;DHT22;11936;50.820;4.336;2022-10-04T18:05:46;16.60;99.90
23520;DHT22;11936;50.820;4.336;2022-10-04T18:14:07;16.60;99.90
23520;DHT22;11936;50.820;4.336;2022-10-04T18:17:21;16.60;99.90
23520;DHT22;11936;50.820;4.336;2022-10-04T18:22:12;16.60;99.90
23520;DHT22;11936;50.820;4.336;2022-10-04T18:24:47;16.70;99.90
23520;DHT22;11936;50.820;4.336;2022-10-04T18:27:22;16.70;99.90
23520;DHT22;11936;50.820;4.336;2022-10-04T18:35:00;16.50;99.90
23520;DHT22;11936;50.820;4.336;2022-10-04T18:37:44;16.60;99.90
23520;DHT22;11936;50.820;4.336;2022-10-04T18:40:16;16.60;99.90
23520;DHT22;11936;50.820;4.336;2022-10-04T18:42:49;16.60;99.90
23520;DHT22;11936;50.820;4.336;2022-10-04T18:47:45;16.60;99.90
23520;DHT22;11936;50.820;4.336;2022-10-04T18:50:31;16.40;99.90
23520;DHT22;11936;50.820;4.336;2022-10-04T18:53:37;16.50;99.90
23520;DHT22;11936;50.820;4.336;2022-10-04T18:56:07;16.50;99.90
23520;DHT22;11936;50.820;4.336;2022-10-04T18:58:43;16.50;99.90
23520;DHT22;11936;50.820;4.336;2022-10-04T19:06:59;16.50;99.90
23520;DHT22;11936;50.820;4.336;2022-10-04T19:09:48;16.50;99.90
23520;DHT22;11936;50.820;4.336;2022-10-04T19:12:18;16.60;99.90
23520;DHT22;11936;50.820;4.336;2022-10-04T19:20:51;16.70;99.90
23520;DHT22;11936;50.820;4.336;2022-10-04T19:23:35;16.60;99.90
23520;DHT22;11936;50.820;4.336;2022-10-04T19:26:09;16.50;99.90
23520;DHT22;11936;50.820;4.336;2022-10-04T19:28:36;16.50;99.90
23520;DHT22;11936;50.820;4.336;2022-10-04T19:47:30;16.70;99.90
23520;DHT22;11936;50.820;4.336;2022-10-04T19:52:35;16.60;99.90
23520;DHT22;11936;50.820;4.336;2022-10-04T19:57:50;16.50;99.90
23520;DHT22;11936;50.820;4.336;2022-10-04T20:00:16;16.60;99.90
23520;DHT22;11936;50.820;4.336;2022-10-04T20:02:44;16.60;99.90
23520;DHT22;11936;50.820;4.336;2022-10-04T20:05:15;16.70;99.90
23520;DHT22;11936;50.820;4.336;2022-10-04T20:07:47;16.70;99.90
23520;DHT22;11936;50.820;4.336;2022-10-04T20:10:21;16.80;99.90
23520;DHT22;11936;50.820;4.336;2022-10-04T20:26:07;16.60;99.90
23520;DHT22;11936;50.820;4.336;2022-10-04T20:33:50;16.70;99.90
23520;DHT22;11936;50.820;4.336;2022-10-04T20:38:53;16.70;99.90
23520;DHT22;11936;50.820;4.336;2022-10-04T20:43:58;16.60;99.90
23520;DHT22;11936;50.820;4.336;2022-10-04T20:46:34;16.70;99.90
23520;DHT22;11936;50.820;4.336;2022-10-04T20:49:04;16.60;99.90
23520;DHT22;11936;50.820;4.336;2022-10-04T20:51:36;16.60;99.90
23520;DHT22;11936;50.820;4.336;2022-10-04T20:54:01;16.60;99.90
23520;DHT22;11936;50.820;4.336;2022-10-04T20:56:32;16.70;99.90
23520;DHT22;11936;50.820;4.336;2022-10-04T20:59:02;16.70;99.90
23520;DHT22;11936;50.820;4.336;2022-10-04T21:01:35;16.80;99.90
23520;DHT22;11936;50.820;4.336;2022-10-04T21:04:24;16.80;99.90
23520;DHT22;11936;50.820;4.336;2022-10-04T21:07:01;16.70;99.90
23520;DHT22;11936;50.820;4.336;2022-10-04T21:09:29;16.70;99.90
23520;DHT22;11936;50.820;4.336;2022-10-04T21:11:56;16.80;99.90
23520;DHT22;11936;50.820;4.336;2022-10-04T21:14:25;16.70;99.90
23520;DHT22;11936;50.820;4.336;2022-10-04T21:16:53;16.80;99.90
23520;DHT22;11936;50.820;4.336;2022-10-04T21:25:01;16.60;99.90
23520;DHT22;11936;50.820;4.336;2022-10-04T21:27:35;16.60;99.90
23520;DHT22;11936;50.820;4.336;2022-10-04T21:30:04;16.60;99.90
23520;DHT22;11936;50.820;4.336;2022-10-04T21:32:35;16.40;99.90
23520;DHT22;11936;50.820;4.336;2022-10-04T21:35:01;16.50;99.90
23520;DHT22;11936;50.820;4.336;2022-10-04T21:37:28;16.50;99.90
23520;DHT22;11936;50.820;4.336;2022-10-04T21:39:54;16.60;99.90
23520;DHT22;11936;50.820;4.336;2022-10-04T21:42:20;16.70;99.90
23520;DHT22;11936;50.820;4.336;2022-10-04T21:44:46;16.60;99.90
23520;DHT22;11936;50.820;4.336;2022-10-04T21:47:12;16.60;99.90
23520;DHT22;11936;50.820;4.336;2022-10-04T21:49:38;16.70;99.90
23520;DHT22;11936;50.820;4.336;2022-10-04T21:52:04;16.70;99.90
23520;DHT22;11936;50.820;4.336;2022-10-04T21:54:29;16.70;99.90
23520;DHT22;11936;50.820;4.336;2022-10-04T21:56:55;16.70;99.90
23520;DHT22;11936;50.820;4.336;2022-10-04T21:59:21;16.70;99.90
23520;DHT22;11936;50.820;4.336;2022-10-04T22:01:46;16.80;99.90
23520;DHT22;11936;50.820;4.336;2022-10-04T22:04:12;16.80;99.90
23520;DHT22;11936;50.820;4.336;2022-10-04T22:06:38;16.70;99.90
23520;DHT22;11936;50.820;4.336;2022-10-04T22:09:03;16.70;99.90
23520;DHT22;11936;50.820;4.336;2022-10-04T22:11:29;16.70;99.90
23520;DHT22;11936;50.820;4.336;2022-10-04T22:13:55;16.70;99.90
23520;DHT22;11936;50.820;4.336;2022-10-04T22:16:20;16.70;99.90
23520;DHT22;11936;50.820;4.336;2022-10-04T22:18:46;16.70;99.90
23520;DHT22;11936;50.820;4.336;2022-10-04T22:21:11;16.70;99.90
23520;DHT22;11936;50.820;4.336;2022-10-04T22:23:39;16.70;99.90
23520;DHT22;11936;50.820;4.336;2022-10-04T22:26:13;16.70;99.90
23520;DHT22;11936;50.820;4.336;2022-10-04T22:28:44;16.70;99.90
23520;DHT22;11936;50.820;4.336;2022-10-04T22:31:18;16.60;99.90
23520;DHT22;11936;50.820;4.336;2022-10-04T22:33:46;16.70;99.90
23520;DHT22;11936;50.820;4.336;2022-10-04T22:38:47;16.60;99.90
23520;DHT22;11936;50.820;4.336;2022-10-04T22:41:15;16.60;99.90
23520;DHT22;11936;50.820;4.336;2022-10-04T22:43:41;16.70;99.90
23520;DHT22;11936;50.820;4.336;2022-10-04T22:46:15;16.60;99.90
23520;DHT22;11936;50.820;4.336;2022-10-04T22:48:42;16.60;99.90
23520;DHT22;11936;50.820;4.336;2022-10-04T22:51:11;16.80;99.90
23520;DHT22;11936;50.820;4.336;2022-10-04T22:53:44;16.70;99.90
23520;DHT22;11936;50.820;4.336;2022-10-04T22:56:13;16.60;99.90
23520;DHT22;11936;50.820;4.336;2022-10-04T22:58:40;16.50;99.90
23520;DHT22;11936;50.820;4.336;2022-10-04T23:01:15;16.60;99.90
23520;DHT22;11936;50.820;4.336;2022-10-04T23:03:45;16.60;99.90
23520;DHT22;11936;50.820;4.336;2022-10-04T23:06:11;16.60;99.90
23520;DHT22;11936;50.820;4.336;2022-10-04T23:08:40;16.70;99.90
23520;DHT22;11936;50.820;4.336;2022-10-04T23:11:05;16.60;99.90
23520;DHT22;11936;50.820;4.336;2022-10-04T23:13:31;16.50;99.90
23520;DHT22;11936;50.820;4.336;2022-10-04T23:15:58;16.50;99.90
23520;DHT22;11936;50.820;4.336;2022-10-04T23:18:25;16.50;99.90
23520;DHT22;11936;50.820;4.336;2022-10-04T23:20:52;16.50;99.90
23520;DHT22;11936;50.820;4.336;2022-10-04T23:23:18;16.50;99.90
23520;DHT22;11936;50.820;4.336;2022-10-04T23:25:46;16.60;99.90
23520;DHT22;11936;50.820;4.336;2022-10-04T23:28:13;16.60;99.90
23520;DHT22;11936;50.820;4.336;2022-10-04T23:30:39;16.60;99.90
23520;DHT22;11936;50.820;4.336;2022-10-04T23:33:05;16.60;99.90
23520;DHT22;11936;50.820;4.336;2022-10-04T23:35:35;16.60;99.90
23520;DHT22;11936;50.820;4.336;2022-10-04T23:38:01;16.40;99.90
23520;DHT22;11936;50.820;4.336;2022-10-04T23:40:31;16.50;99.90
23520;DHT22;11936;50.820;4.336;2022-10-04T23:43:02;16.50;99.90
23520;DHT22;11936;50.820;4.336;2022-10-04T23:45:28;16.50;99.90
23520;DHT22;11936;50.820;4.336;2022-10-04T23:47:54;16.50;99.90
23520;DHT22;11936;50.820;4.336;2022-10-04T23:50:21;16.50;99.90
23520;DHT22;11936;50.820;4.336;2022-10-04T23:52:49;16.50;99.90
23520;DHT22;11936;50.820;4.336;2022-10-04T23:55:24;16.50;99.90
23520;DHT22;11936;50.820;4.336;2022-10-04T23:57:51;16.50;99.90
